createdAt,value
2022-09-18T00:01:14.788Z,8.30
2022-09-18T00:03:42.426Z,8.30
2022-09-18T00:06:21.230Z,8.30
2022-09-18T00:08:51.188Z,8.30
2022-09-18T00:11:19.621Z,8.30
2022-09-18T00:13:46.428Z,8.30
2022-09-18T00:16:14.979Z,8.30
2022-09-18T00:18:42.433Z,8.30
2022-09-18T00:21:12.161Z,8.30
2022-09-18T00:23:39.460Z,8.20
2022-09-18T00:26:07.474Z,8.30
2022-09-18T00:28:35.524Z,8.30
2022-09-18T00:31:11.459Z,8.30
2022-09-18T00:33:39.946Z,8.20
2022-09-18T00:36:11.014Z,8.30
2022-09-18T00:38:37.738Z,8.20
2022-09-18T00:41:08.060Z,8.20
2022-09-18T00:43:36.491Z,8.20
2022-09-18T00:46:25.813Z,8.20
2022-09-18T00:49:02.989Z,8.30
2022-09-18T00:51:33.248Z,8.20
2022-09-18T00:54:14.399Z,8.20
2022-09-18T00:56:42.203Z,8.20
2022-09-18T00:59:12.345Z,8.20
2022-09-18T01:01:39.077Z,8.20
2022-09-18T01:04:11.394Z,8.20
2022-09-18T01:06:49.968Z,8.20
2022-09-18T01:09:43.384Z,8.20
2022-09-18T01:12:42.765Z,8.30
2022-09-18T01:15:26.175Z,8.30
2022-09-18T01:18:25.455Z,8.20
2022-09-18T01:21:07.691Z,8.30
2022-09-18T01:23:58.997Z,8.30
2022-09-18T01:26:54.876Z,8.30
2022-09-18T01:29:51.921Z,8.30
2022-09-18T01:32:22.004Z,8.30
2022-09-18T01:35:41.995Z,8.20
2022-09-18T01:38:32.165Z,8.20
2022-09-18T01:41:05.762Z,8.20
2022-09-18T01:43:33.915Z,8.20
2022-09-18T01:46:07.046Z,8.20
2022-09-18T01:49:02.613Z,8.20
2022-09-18T01:51:46.762Z,8.20
2022-09-18T01:54:21.897Z,8.20
2022-09-18T01:56:54.548Z,8.20
2022-09-18T02:00:00.970Z,8.20
2022-09-18T02:03:02.178Z,8.20
2022-09-18T02:05:37.436Z,8.20
2022-09-18T02:08:31.786Z,8.20
2022-09-18T02:11:08.452Z,8.20
2022-09-18T02:13:46.962Z,8.20
2022-09-18T02:16:30.334Z,8.20
2022-09-18T02:19:00.149Z,8.30
2022-09-18T02:21:29.387Z,8.30
2022-09-18T02:24:03.128Z,8.30
2022-09-18T02:26:35.666Z,8.30
2022-09-18T02:29:04.994Z,8.30
2022-09-18T02:31:32.662Z,8.30
2022-09-18T02:33:59.551Z,8.30
2022-09-18T02:37:08.020Z,8.30
2022-09-18T02:40:19.518Z,8.30
2022-09-18T02:42:52.224Z,8.40
2022-09-18T02:45:36.688Z,8.30
2022-09-18T02:48:33.252Z,8.30
2022-09-18T02:51:22.150Z,8.30
2022-09-18T02:54:02.463Z,8.40
2022-09-18T02:56:41.991Z,8.40
2022-09-18T02:59:27.385Z,8.40
2022-09-18T03:01:58.660Z,8.40
2022-09-18T03:04:27.641Z,8.40
2022-09-18T03:07:02.863Z,8.40
2022-09-18T03:09:32.242Z,8.40
2022-09-18T03:11:58.982Z,8.30
2022-09-18T03:14:25.890Z,8.30
2022-09-18T03:16:52.605Z,8.30
2022-09-18T03:19:19.716Z,8.30
2022-09-18T03:21:47.345Z,8.30
2022-09-18T03:24:14.232Z,8.30
2022-09-18T03:26:44.374Z,8.30
2022-09-18T03:29:13.215Z,8.30
2022-09-18T03:31:41.837Z,8.30
2022-09-18T03:34:11.227Z,8.20
2022-09-18T03:36:38.607Z,8.20
2022-09-18T03:39:06.535Z,8.20
2022-09-18T03:41:33.770Z,8.20
2022-09-18T03:44:00.596Z,8.20
2022-09-18T03:46:28.163Z,8.20
2022-09-18T03:48:58.131Z,8.20
2022-09-18T03:51:27.506Z,8.20
2022-09-18T03:53:54.216Z,8.20
2022-09-18T03:56:48.372Z,8.20
2022-09-18T03:59:33.675Z,8.20
2022-09-18T04:02:29.441Z,8.20
2022-09-18T04:05:15.368Z,8.10
2022-09-18T04:08:00.882Z,8.10
2022-09-18T04:10:59.837Z,8.10
2022-09-18T04:13:26.824Z,8.00
2022-09-18T04:15:59.998Z,8.00
2022-09-18T04:18:28.951Z,8.00
2022-09-18T04:20:57.568Z,8.00
2022-09-18T04:23:24.450Z,8.00
2022-09-18T04:25:51.252Z,8.00
2022-09-18T04:28:17.996Z,8.00
2022-09-18T04:30:47.856Z,8.00
2022-09-18T04:33:16.017Z,8.10
2022-09-18T04:35:43.166Z,8.10
2022-09-18T04:38:10.969Z,8.10
2022-09-18T04:40:37.917Z,8.00
2022-09-18T04:43:05.423Z,8.00
2022-09-18T04:45:32.315Z,8.00
2022-09-18T04:47:59.259Z,8.00
2022-09-18T04:50:27.850Z,8.00
2022-09-18T04:53:15.352Z,8.00
2022-09-18T04:55:44.575Z,8.00
2022-09-18T04:58:13.311Z,8.00
2022-09-18T05:00:42.370Z,8.00
2022-09-18T05:03:09.543Z,8.00
2022-09-18T05:05:38.896Z,8.00
2022-09-18T05:08:06.825Z,8.00
2022-09-18T05:10:34.064Z,8.00
2022-09-18T05:13:03.470Z,8.00
2022-09-18T05:15:31.053Z,8.00
2022-09-18T05:18:01.656Z,8.00
2022-09-18T05:20:30.418Z,8.00
2022-09-18T05:23:04.185Z,8.00
2022-09-18T05:25:30.994Z,8.00
2022-09-18T05:27:59.987Z,8.00
2022-09-18T05:30:32.325Z,8.00
2022-09-18T05:33:07.202Z,8.10
2022-09-18T05:35:39.627Z,8.10
2022-09-18T05:38:06.767Z,8.10
2022-09-18T05:40:38.869Z,8.10
2022-09-18T05:43:07.238Z,8.10
2022-09-18T05:45:35.474Z,8.10
2022-09-18T05:48:07.752Z,8.10
2022-09-18T05:50:38.808Z,8.10
2022-09-18T05:53:14.744Z,8.20
2022-09-18T05:55:50.689Z,8.20
2022-09-18T05:58:19.992Z,8.10
2022-09-18T06:00:51.190Z,8.20
2022-09-18T06:03:24.102Z,8.20
2022-09-18T06:05:54.909Z,8.20
2022-09-18T06:08:22.835Z,8.20
2022-09-18T06:10:49.767Z,8.30
2022-09-18T06:13:18.567Z,8.30
2022-09-18T06:15:52.302Z,8.30
2022-09-18T06:18:28.171Z,8.30
2022-09-18T06:20:59.239Z,8.30
2022-09-18T06:23:29.564Z,8.40
2022-09-18T06:26:05.647Z,8.40
2022-09-18T06:28:36.837Z,8.50
2022-09-18T06:31:05.850Z,8.50
2022-09-18T06:33:48.781Z,8.50
2022-09-18T06:36:16.357Z,8.50
2022-09-18T06:39:01.551Z,8.60
2022-09-18T06:41:28.587Z,8.60
2022-09-18T06:43:55.874Z,8.60
2022-09-18T06:46:44.410Z,8.70
2022-09-18T06:49:23.237Z,8.70
2022-09-18T06:51:50.046Z,8.80
2022-09-18T06:54:17.339Z,8.80
2022-09-18T06:56:46.130Z,8.80
2022-09-18T06:59:14.051Z,8.90
2022-09-18T07:01:41.294Z,8.90
2022-09-18T07:04:15.122Z,8.90
2022-09-18T07:06:46.944Z,8.90
2022-09-18T07:09:14.813Z,8.90
2022-09-18T07:12:02.038Z,8.90
2022-09-18T07:14:51.583Z,8.90
2022-09-18T07:17:22.201Z,8.90
2022-09-18T07:19:53.656Z,9.00
2022-09-18T07:22:24.033Z,9.00
2022-09-18T07:24:51.156Z,9.00
2022-09-18T07:27:17.867Z,9.00
2022-09-18T07:29:45.116Z,9.10
2022-09-18T07:32:14.878Z,9.10
2022-09-18T07:34:44.537Z,9.10
2022-09-18T07:37:14.216Z,9.10
2022-09-18T07:39:47.117Z,9.20
2022-09-18T07:42:32.726Z,9.30
2022-09-18T07:45:01.227Z,9.30
2022-09-18T07:47:29.821Z,9.30
2022-09-18T07:49:59.557Z,9.30
2022-09-18T07:52:26.315Z,9.30
2022-09-18T07:54:53.113Z,9.30
2022-09-18T07:57:30.031Z,9.30
2022-09-18T08:00:12.442Z,9.30
2022-09-18T08:02:42.396Z,9.30
2022-09-18T08:05:13.657Z,9.20
2022-09-18T08:07:47.816Z,9.20
2022-09-18T08:10:45.524Z,9.20
2022-09-18T08:13:44.379Z,9.10
2022-09-18T08:16:31.436Z,9.30
2022-09-18T08:19:01.455Z,9.30
2022-09-18T08:21:33.974Z,9.30
2022-09-18T08:24:03.146Z,9.30
2022-09-18T08:26:30.337Z,9.30
2022-09-18T08:28:57.389Z,9.40
2022-09-18T08:31:26.328Z,9.40
2022-09-18T08:33:56.405Z,9.40
2022-09-18T08:36:23.255Z,9.40
2022-09-18T08:39:10.121Z,9.40
2022-09-18T08:42:16.190Z,9.40
2022-09-18T08:44:47.106Z,9.30
2022-09-18T08:47:22.271Z,9.20
2022-09-18T08:49:56.658Z,9.10
2022-09-18T08:52:31.577Z,9.10
2022-09-18T08:55:27.296Z,9.00
2022-09-18T08:58:05.873Z,9.00
2022-09-18T09:00:50.243Z,8.90
2022-09-18T09:03:46.867Z,8.90
2022-09-18T09:06:31.654Z,8.80
2022-09-18T09:09:21.155Z,8.80
2022-09-18T09:11:57.449Z,8.80
2022-09-18T09:14:58.197Z,8.70
2022-09-18T09:17:37.521Z,8.70
2022-09-18T09:20:24.722Z,8.70
2022-09-18T09:23:04.321Z,8.70
2022-09-18T09:25:37.078Z,8.80
2022-09-18T09:28:51.514Z,8.80
2022-09-18T09:31:58.782Z,8.80
2022-09-18T09:34:55.456Z,8.90
2022-09-18T09:37:40.962Z,8.90
2022-09-18T09:40:22.962Z,8.90
2022-09-18T09:42:57.592Z,9.00
2022-09-18T09:45:29.526Z,9.10
2022-09-18T09:48:16.500Z,9.10
2022-09-18T09:50:52.747Z,9.10
2022-09-18T09:53:24.548Z,9.20
2022-09-18T09:56:28.756Z,9.30
2022-09-18T09:59:14.218Z,9.30
2022-09-18T10:02:39.844Z,9.30
2022-09-18T10:05:38.770Z,9.30
2022-09-18T10:08:17.443Z,9.30
2022-09-18T10:10:49.327Z,9.30
2022-09-18T10:13:27.976Z,9.30
2022-09-18T10:16:23.671Z,9.30
2022-09-18T10:18:51.911Z,9.20
2022-09-18T10:21:28.195Z,9.30
2022-09-18T10:24:22.197Z,9.20
2022-09-18T10:26:56.127Z,9.30
2022-09-18T10:29:23.986Z,9.20
2022-09-18T10:31:59.833Z,9.20
2022-09-18T10:34:42.352Z,9.20
2022-09-18T10:37:29.078Z,9.30
2022-09-18T10:40:04.595Z,9.30
2022-09-18T10:42:35.250Z,9.30
2022-09-18T10:45:25.339Z,9.30
2022-09-18T10:48:06.693Z,9.30
2022-09-18T10:50:34.710Z,9.30
2022-09-18T10:53:24.815Z,9.30
2022-09-18T10:55:55.767Z,9.20
2022-09-18T10:58:30.474Z,9.20
2022-09-18T11:01:07.807Z,9.20
2022-09-18T11:03:46.740Z,9.20
2022-09-18T11:06:24.421Z,9.20
2022-09-18T11:08:57.186Z,9.10
2022-09-18T11:11:42.667Z,9.20
2022-09-18T11:14:27.070Z,9.20
2022-09-18T11:17:01.340Z,9.10
2022-09-18T11:19:40.210Z,9.10
2022-09-18T11:22:34.223Z,9.10
2022-09-18T11:25:22.427Z,9.10
2022-09-18T11:27:57.544Z,9.10
2022-09-18T11:30:33.084Z,9.10
2022-09-18T11:33:23.763Z,9.10
2022-09-18T11:35:57.611Z,9.10
2022-09-18T11:38:24.490Z,9.10
2022-09-18T11:40:54.229Z,9.10
2022-09-18T11:43:37.466Z,9.00
2022-09-18T11:46:11.445Z,9.00
2022-09-18T11:48:50.426Z,9.00
2022-09-18T11:51:26.636Z,9.00
2022-09-18T11:54:07.629Z,9.00
2022-09-18T11:56:40.622Z,9.00
2022-09-18T11:59:47.846Z,9.00
2022-09-18T12:02:22.686Z,8.90
2022-09-18T12:04:58.251Z,8.90
2022-09-18T12:07:44.239Z,8.90
2022-09-18T12:10:26.717Z,8.90
2022-09-18T12:13:39.516Z,8.80
2022-09-18T12:16:14.049Z,8.80
2022-09-18T12:19:01.534Z,8.80
2022-09-18T12:21:51.434Z,8.70
2022-09-18T12:24:18.303Z,8.70
2022-09-18T12:26:54.236Z,8.70
2022-09-18T12:29:49.215Z,8.60
2022-09-18T12:32:50.119Z,8.60
2022-09-18T12:35:47.992Z,8.60
2022-09-18T12:38:23.488Z,8.60
2022-09-18T12:40:50.839Z,8.50
2022-09-18T12:43:26.394Z,8.50
2022-09-18T12:46:24.119Z,8.50
2022-09-18T12:48:56.896Z,8.50
2022-09-18T12:51:38.697Z,8.50
2022-09-18T12:54:23.827Z,8.50
2022-09-18T12:57:15.799Z,8.50
2022-09-18T12:59:49.817Z,8.50
2022-09-18T13:02:51.785Z,8.50
2022-09-18T13:05:28.162Z,8.50
2022-09-18T13:08:07.022Z,8.50
2022-09-18T13:10:40.577Z,8.40
2022-09-18T13:13:16.680Z,8.50
2022-09-18T13:15:56.826Z,8.40
2022-09-18T13:18:50.412Z,8.50
2022-09-18T13:21:41.697Z,8.40
2022-09-18T13:24:15.569Z,8.40
2022-09-18T13:26:45.086Z,8.40
2022-09-18T13:29:46.329Z,8.40
2022-09-18T13:32:13.830Z,8.40
2022-09-18T13:34:54.030Z,8.40
2022-09-18T13:37:22.990Z,8.40
2022-09-18T13:40:09.885Z,8.40
2022-09-18T13:42:42.346Z,8.40
2022-09-18T13:45:25.968Z,8.40
2022-09-18T13:48:06.935Z,8.30
2022-09-18T13:50:36.421Z,8.30
2022-09-18T13:53:04.973Z,8.30
2022-09-18T13:55:36.616Z,8.30
2022-09-18T13:58:31.271Z,8.30
2022-09-18T14:01:03.371Z,8.30
2022-09-18T14:03:40.762Z,8.30
2022-09-18T14:06:35.598Z,8.40
2022-09-18T14:09:23.327Z,8.30
2022-09-18T14:11:50.230Z,8.30
2022-09-18T14:14:22.730Z,8.40
2022-09-18T14:16:50.763Z,8.40
2022-09-18T14:19:30.968Z,8.40
2022-09-18T14:21:58.898Z,8.30
2022-09-18T14:24:50.112Z,8.30
2022-09-18T14:27:37.891Z,8.30
2022-09-18T14:30:16.408Z,8.20
2022-09-18T14:32:59.298Z,8.20
2022-09-18T14:35:47.150Z,8.10
2022-09-18T14:38:19.988Z,8.10
2022-09-18T14:40:58.883Z,8.00
2022-09-18T14:43:26.052Z,8.00
2022-09-18T14:45:54.019Z,7.90
2022-09-18T14:48:34.847Z,7.90
2022-09-18T14:51:05.453Z,7.90
2022-09-18T14:53:42.611Z,7.90
2022-09-18T14:56:15.513Z,7.80
2022-09-18T14:58:46.535Z,7.80
2022-09-18T15:01:15.819Z,7.80
2022-09-18T15:03:46.666Z,7.80
2022-09-18T15:06:17.056Z,7.80
2022-09-18T15:08:45.699Z,7.90
2022-09-18T15:11:18.069Z,7.90
2022-09-18T15:13:46.863Z,7.90
2022-09-18T15:16:24.540Z,7.90
2022-09-18T15:18:51.518Z,7.90
2022-09-18T15:21:33.237Z,8.00
2022-09-18T15:24:02.276Z,8.00
2022-09-18T15:26:56.266Z,8.00
2022-09-18T15:29:31.574Z,8.00
2022-09-18T15:31:59.298Z,8.00
2022-09-18T15:34:29.162Z,8.00
2022-09-18T15:37:02.358Z,8.00
2022-09-18T15:39:38.747Z,8.00
2022-09-18T15:42:35.334Z,8.10
2022-09-18T15:45:02.017Z,8.10
2022-09-18T15:47:28.772Z,8.20
2022-09-18T15:49:56.300Z,8.10
2022-09-18T15:52:43.605Z,8.20
2022-09-18T15:55:10.310Z,8.20
2022-09-18T15:57:38.551Z,8.20
2022-09-18T16:00:10.680Z,8.20
2022-09-18T16:02:39.258Z,8.20
2022-09-18T16:05:14.923Z,8.20
2022-09-18T16:07:52.685Z,8.20
2022-09-18T16:10:34.820Z,8.20
2022-09-18T16:13:11.434Z,8.20
2022-09-18T16:15:38.198Z,8.30
2022-09-18T16:18:19.115Z,8.20
2022-09-18T16:20:52.511Z,8.20
2022-09-18T16:23:47.371Z,8.20
2022-09-18T16:26:33.715Z,8.20
2022-09-18T16:29:06.379Z,8.20
2022-09-18T16:31:35.959Z,8.20
2022-09-18T16:34:05.402Z,8.20
2022-09-18T16:36:41.718Z,8.20
2022-09-18T16:39:14.703Z,8.20
2022-09-18T16:41:42.383Z,8.20
2022-09-18T16:44:11.665Z,8.20
2022-09-18T16:46:45.118Z,8.20
2022-09-18T16:49:15.853Z,8.20
2022-09-18T16:51:42.686Z,8.20
2022-09-18T16:54:09.445Z,8.20
2022-09-18T16:56:44.355Z,8.20
2022-09-18T16:59:11.272Z,8.20
2022-09-18T17:02:00.034Z,8.20
2022-09-18T17:04:26.644Z,8.20
2022-09-18T17:06:53.334Z,8.20
2022-09-18T17:09:21.316Z,8.20
2022-09-18T17:11:48.063Z,8.20
2022-09-18T17:14:14.795Z,8.20
2022-09-18T17:16:44.835Z,8.10
2022-09-18T17:19:12.886Z,8.20
2022-09-18T17:21:41.460Z,8.20
2022-09-18T17:24:08.801Z,8.20
2022-09-18T17:26:37.445Z,8.20
2022-09-18T17:29:04.675Z,8.10
2022-09-18T17:31:31.456Z,8.20
2022-09-18T17:33:58.232Z,8.20
2022-09-18T17:36:24.987Z,8.20
2022-09-18T17:38:52.268Z,8.20
2022-09-18T17:41:19.823Z,8.20
2022-09-18T17:43:51.932Z,8.20
2022-09-18T17:46:19.167Z,8.20
2022-09-18T17:48:46.026Z,8.20
2022-09-18T17:51:18.216Z,8.20
2022-09-18T17:53:47.580Z,8.20
2022-09-18T17:56:17.651Z,8.20
2022-09-18T17:58:45.426Z,8.20
2022-09-18T18:01:13.840Z,8.20
2022-09-18T18:03:41.049Z,8.20
2022-09-18T18:06:08.490Z,8.20
2022-09-18T18:08:35.184Z,8.20
2022-09-18T18:11:10.844Z,8.20
2022-09-18T18:13:39.233Z,8.20
2022-09-18T18:16:21.992Z,8.20
2022-09-18T18:18:56.534Z,8.20
2022-09-18T18:21:24.118Z,8.20
2022-09-18T18:24:18.250Z,8.20
2022-09-18T18:26:46.677Z,8.20
2022-09-18T18:29:16.692Z,8.20
2022-09-18T18:31:44.173Z,8.20
2022-09-18T18:34:12.013Z,8.20
2022-09-18T18:36:40.501Z,8.20
2022-09-18T18:39:11.897Z,8.20
2022-09-18T18:41:39.387Z,8.20
2022-09-18T18:44:06.335Z,8.20
2022-09-18T18:46:36.266Z,8.20
2022-09-18T18:49:11.827Z,8.20
2022-09-18T18:51:45.061Z,8.00
2022-09-18T18:54:12.281Z,8.10
2022-09-18T18:56:40.436Z,8.10
2022-09-18T18:59:10.950Z,8.00
2022-09-18T19:01:39.135Z,8.10
2022-09-18T19:04:08.598Z,8.00
2022-09-18T19:06:38.798Z,8.10
2022-09-18T19:09:26.301Z,8.00
2022-09-18T19:11:53.636Z,8.00
2022-09-18T19:14:26.011Z,8.00
2022-09-18T19:16:54.100Z,8.00
2022-09-18T19:19:23.646Z,8.00
2022-09-18T19:21:51.260Z,8.00
2022-09-18T19:24:20.715Z,8.00
2022-09-18T19:26:48.232Z,8.00
2022-09-18T19:29:17.399Z,8.00
2022-09-18T19:31:46.433Z,7.90
2022-09-18T19:34:18.262Z,7.90
2022-09-18T19:36:47.103Z,7.90
2022-09-18T19:39:14.146Z,7.90
2022-09-18T19:42:04.651Z,7.90
2022-09-18T19:44:49.882Z,7.90
2022-09-18T19:47:31.529Z,7.90
2022-09-18T19:49:59.676Z,7.90
2022-09-18T19:52:28.640Z,7.90
2022-09-18T19:54:56.709Z,7.80
2022-09-18T19:57:23.762Z,7.80
2022-09-18T19:59:55.227Z,7.80
2022-09-18T20:02:23.827Z,7.80
2022-09-18T20:04:50.678Z,7.80
2022-09-18T20:07:17.416Z,7.80
2022-09-18T20:09:44.183Z,7.70
2022-09-18T20:12:10.951Z,7.70
2022-09-18T20:14:37.674Z,7.70
2022-09-18T20:17:05.105Z,7.70
2022-09-18T20:19:31.897Z,7.70
2022-09-18T20:22:02.166Z,7.70
2022-09-18T20:24:30.323Z,7.70
2022-09-18T20:26:58.205Z,7.70
2022-09-18T20:29:27.282Z,7.70
2022-09-18T20:31:54.913Z,7.70
2022-09-18T20:34:22.360Z,7.70
2022-09-18T20:36:49.717Z,7.70
2022-09-18T20:39:16.461Z,7.70
2022-09-18T20:41:43.212Z,7.70
2022-09-18T20:44:10.106Z,7.70
2022-09-18T20:46:37.705Z,7.70
2022-09-18T20:49:05.165Z,7.70
2022-09-18T20:51:34.741Z,7.70
2022-09-18T20:54:03.013Z,7.70
2022-09-18T20:56:36.068Z,7.60
2022-09-18T20:59:07.511Z,7.70
2022-09-18T21:01:41.405Z,7.70
2022-09-18T21:04:11.267Z,7.80
2022-09-18T21:06:38.261Z,7.70
2022-09-18T21:09:08.968Z,7.70
2022-09-18T21:11:40.989Z,7.70
2022-09-18T21:14:10.775Z,7.70
2022-09-18T21:16:42.666Z,7.70
2022-09-18T21:19:11.993Z,7.70
2022-09-18T21:21:39.742Z,7.70
2022-09-18T21:24:08.759Z,7.60
2022-09-18T21:26:38.357Z,7.60
2022-09-18T21:29:22.928Z,7.60
2022-09-18T21:31:53.132Z,7.60
2022-09-18T21:34:29.994Z,7.60
2022-09-18T21:37:02.245Z,7.60
2022-09-18T21:39:30.074Z,7.60
2022-09-18T21:41:58.545Z,7.60
2022-09-18T21:44:28.046Z,7.60
2022-09-18T21:46:58.403Z,7.60
2022-09-18T21:49:26.096Z,7.60
2022-09-18T21:52:01.906Z,7.60
2022-09-18T21:54:29.219Z,7.60
2022-09-18T21:56:56.493Z,7.50
2022-09-18T21:59:25.446Z,7.60
2022-09-18T22:01:55.510Z,7.60
2022-09-18T22:04:26.929Z,7.50
2022-09-18T22:06:55.557Z,7.50
2022-09-18T22:09:31.931Z,7.50
2022-09-18T22:12:01.172Z,7.50
2022-09-18T22:14:31.963Z,7.50
2022-09-18T22:17:00.952Z,7.50
2022-09-18T22:19:29.153Z,7.50
2022-09-18T22:21:56.844Z,7.50
2022-09-18T22:24:25.251Z,7.50
2022-09-18T22:26:55.913Z,7.60
2022-09-18T22:29:29.976Z,7.50
2022-09-18T22:31:57.812Z,7.50
2022-09-18T22:34:26.964Z,7.50
2022-09-18T22:36:54.158Z,7.50
2022-09-18T22:39:21.989Z,7.50
2022-09-18T22:41:50.231Z,7.50
2022-09-18T22:44:18.269Z,7.50
2022-09-18T22:46:46.197Z,7.50
2022-09-18T22:49:15.033Z,7.50
2022-09-18T22:51:42.449Z,7.50
2022-09-18T22:54:09.437Z,7.50
2022-09-18T22:56:41.149Z,7.50
2022-09-18T22:59:08.192Z,7.50
2022-09-18T23:01:49.078Z,7.50
2022-09-18T23:04:18.745Z,7.50
2022-09-18T23:06:47.643Z,7.50
2022-09-18T23:09:15.700Z,7.50
2022-09-18T23:11:43.758Z,7.50
2022-09-18T23:14:14.983Z,7.50
2022-09-18T23:16:41.982Z,7.50
2022-09-18T23:19:14.709Z,7.40
2022-09-18T23:21:41.441Z,7.40
2022-09-18T23:24:09.238Z,7.50
2022-09-18T23:26:41.920Z,7.40
2022-09-18T23:29:14.497Z,7.50
2022-09-18T23:31:43.383Z,7.40
2022-09-18T23:34:16.628Z,7.40
2022-09-18T23:36:46.288Z,7.50
2022-09-18T23:39:14.653Z,7.50
2022-09-18T23:41:42.184Z,7.50
2022-09-18T23:44:11.065Z,7.50
2022-09-18T23:46:37.916Z,7.50
2022-09-18T23:49:06.845Z,7.50
2022-09-18T23:51:37.254Z,7.50
2022-09-18T23:54:06.113Z,7.50
2022-09-18T23:56:33.930Z,7.50
2022-09-18T23:59:03.695Z,7.50
